Time;durP1;ratioP1;P1;durP2;ratioP2;P2;SDS_P1;SDS_P2;PMS_P1;PMS_P2;Temp;Humidity;BMP_temperature;BMP_pressure;BME280_temperature;BME280_humidity;BME280_pressure;Samples;Min_cycle;Max_cycle;Signal;HPM_P1;HPM_P2
2023/06/10 00:01:08;;;;;;;;;14.75;14.25;;;;;;;;5057799;28;8810;-76
2023/06/10 00:03:36;;;;;;;;;15.75;14.00;;;;;;;;5068135;28;9613;-77
2023/06/10 00:06:03;;;;;;;;;14.00;14.00;;;;;;;;5070669;28;8827;-77
2023/06/10 00:08:33;;;;;;;;;16.25;14.75;;;;;;;;5057604;28;8841;-80
2023/06/10 00:11:00;;;;;;;;;16.00;16.00;;;;;;;;5068015;28;9005;-77
2023/06/10 00:13:27;;;;;;;;;14.00;13.25;;;;;;;;5061669;28;8965;-77
2023/06/10 00:15:55;;;;;;;;;16.25;16.25;;;;;;;;5058902;28;8878;-77
2023/06/10 00:18:22;;;;;;;;;15.00;15.00;;;;;;;;5064041;28;8870;-77
2023/06/10 00:20:52;;;;;;;;;12.00;12.00;;;;;;;;5061140;28;8843;-77
2023/06/10 00:23:20;;;;;;;;;14.75;14.50;;;;;;;;5071437;28;8839;-77
2023/06/10 00:25:48;;;;;;;;;16.25;14.50;;;;;;;;5067788;28;8877;-78
2023/06/10 00:28:15;;;;;;;;;14.75;14.00;;;;;;;;5064733;28;8872;-77
2023/06/10 00:30:43;;;;;;;;;11.25;11.25;;;;;;;;5070345;28;8792;-77
2023/06/10 00:33:10;;;;;;;;;14.00;13.25;;;;;;;;5070777;28;9014;-79
2023/06/10 00:35:37;;;;;;;;;17.00;16.00;;;;;;;;5066895;28;8884;-76
2023/06/10 00:38:04;;;;;;;;;17.00;15.75;;;;;;;;5056168;28;8863;-77
2023/06/10 00:40:32;;;;;;;;;16.75;16.75;;;;;;;;5070836;28;9713;-77
2023/06/10 00:43:00;;;;;;;;;15.50;14.75;;;;;;;;5071067;28;8843;-78
2023/06/10 00:45:27;;;;;;;;;17.25;15.75;;;;;;;;5063402;28;9537;-77
2023/06/10 00:47:55;;;;;;;;;17.25;15.25;;;;;;;;5065192;28;9673;-77
2023/06/10 00:50:22;;;;;;;;;16.00;16.00;;;;;;;;5069401;28;8867;-77
2023/06/10 00:52:51;;;;;;;;;17.50;17.50;;;;;;;;5065451;28;8869;-76
2023/06/10 00:55:19;;;;;;;;;16.00;15.75;;;;;;;;5056746;28;8865;-77
2023/06/10 00:57:48;;;;;;;;;16.25;16.25;;;;;;;;5062624;28;8838;-76
2023/06/10 01:00:20;;;;;;;;;21.75;21.75;;;;;;;;5070209;28;8874;-77
2023/06/10 01:02:52;;;;;;;;;13.75;12.25;;;;;;;;5070523;28;8943;-77
2023/06/10 01:05:20;;;;;;;;;20.25;20.25;;;;;;;;5054067;28;8853;-78
2023/06/10 01:07:54;;;;;;;;;15.00;14.50;;;;;;;;5061680;28;9017;-77
2023/06/10 01:10:26;;;;;;;;;19.25;19.25;;;;;;;;5065493;28;8842;-79
2023/06/10 01:13:02;;;;;;;;;15.50;15.50;;;;;;;;5070907;28;8874;-78
2023/06/10 01:15:31;;;;;;;;;15.50;15.50;;;;;;;;5070626;28;8843;-78
2023/06/10 01:18:01;;;;;;;;;17.75;17.75;;;;;;;;5065563;28;8860;-77
2023/06/10 01:20:31;;;;;;;;;21.00;19.25;;;;;;;;5062382;28;8843;-77
2023/06/10 01:23:02;;;;;;;;;18.00;18.00;;;;;;;;5069839;28;8866;-77
2023/06/10 01:25:32;;;;;;;;;17.25;17.25;;;;;;;;5066849;28;8846;-77
2023/06/10 01:28:05;;;;;;;;;15.75;15.75;;;;;;;;5053922;28;8891;-80
2023/06/10 01:30:38;;;;;;;;;17.00;17.00;;;;;;;;5066757;28;8991;-78
2023/06/10 01:33:08;;;;;;;;;17.75;17.75;;;;;;;;5070117;28;8839;-80
2023/06/10 01:35:38;;;;;;;;;17.50;17.50;;;;;;;;5067843;28;8851;-76
2023/06/10 01:38:08;;;;;;;;;17.25;15.50;;;;;;;;5055235;28;9627;-77
2023/06/10 01:40:35;;;;;;;;;16.75;16.25;;;;;;;;5065934;28;8854;-77
2023/06/10 01:43:05;;;;;;;;;16.50;15.75;;;;;;;;5068450;28;9629;-77
2023/06/10 01:45:33;;;;;;;;;18.75;17.50;;;;;;;;5062941;28;9633;-77
2023/06/10 01:48:00;;;;;;;;;21.00;20.00;;;;;;;;5065154;28;8839;-77
2023/06/10 01:50:27;;;;;;;;;18.50;16.75;;;;;;;;5067587;28;9222;-77
2023/06/10 01:52:54;;;;;;;;;17.00;15.00;;;;;;;;5065117;28;9714;-78
2023/06/10 01:55:23;;;;;;;;;17.25;15.75;;;;;;;;5057221;28;8934;-76
2023/06/10 01:57:51;;;;;;;;;19.50;19.50;;;;;;;;5068466;28;8885;-76
2023/06/10 02:00:21;;;;;;;;;19.75;19.75;;;;;;;;5059084;28;8951;-77
2023/06/10 02:02:49;;;;;;;;;16.75;16.75;;;;;;;;5058483;28;8839;-80
2023/06/10 02:05:16;;;;;;;;;18.50;18.50;;;;;;;;5069318;28;8854;-77
2023/06/10 02:07:43;;;;;;;;;19.50;19.00;;;;;;;;5064784;28;8853;-78
2023/06/10 02:10:11;;;;;;;;;18.75;18.75;;;;;;;;5059151;28;8850;-78
2023/06/10 02:12:39;;;;;;;;;14.00;14.00;;;;;;;;5056621;28;9581;-77
2023/06/10 02:15:07;;;;;;;;;19.50;18.00;;;;;;;;5066299;28;8884;-77
2023/06/10 02:17:34;;;;;;;;;18.00;17.00;;;;;;;;5057485;28;8839;-77
2023/06/10 02:20:06;;;;;;;;;23.75;20.25;;;;;;;;5069712;28;8870;-78
2023/06/10 02:22:34;;;;;;;;;20.75;19.00;;;;;;;;5069855;28;8877;-78
2023/06/10 02:25:01;;;;;;;;;17.25;17.25;;;;;;;;5069650;28;8847;-77
2023/06/10 02:27:29;;;;;;;;;18.25;18.25;;;;;;;;5059125;28;8859;-77
2023/06/10 02:29:58;;;;;;;;;18.25;18.25;;;;;;;;5069360;28;8862;-76
2023/06/10 02:32:25;;;;;;;;;19.00;19.00;;;;;;;;5058090;28;8791;-77
2023/06/10 02:34:53;;;;;;;;;15.50;15.50;;;;;;;;5069241;28;8940;-77
2023/06/10 02:37:20;;;;;;;;;16.50;16.00;;;;;;;;5066779;28;8865;-77
2023/06/10 02:39:48;;;;;;;;;18.25;18.25;;;;;;;;5070229;28;8981;-79
2023/06/10 02:42:15;;;;;;;;;16.75;15.75;;;;;;;;5064265;28;8855;-77
2023/06/10 02:44:42;;;;;;;;;17.75;16.50;;;;;;;;5056070;28;9439;-77
2023/06/10 02:47:11;;;;;;;;;20.25;18.75;;;;;;;;5062154;28;8861;-78
2023/06/10 02:49:38;;;;;;;;;19.00;16.00;;;;;;;;5066267;28;8863;-80
2023/06/10 02:52:07;;;;;;;;;14.25;14.00;;;;;;;;5060446;28;8845;-78
2023/06/10 02:54:35;;;;;;;;;19.00;19.00;;;;;;;;5063229;28;8831;-77
2023/06/10 02:57:03;;;;;;;;;20.00;20.00;;;;;;;;5064004;28;8935;-78
2023/06/10 02:59:30;;;;;;;;;15.00;15.00;;;;;;;;5054912;28;8857;-77
2023/06/10 03:01:57;;;;;;;;;20.25;19.25;;;;;;;;5061126;28;8968;-80
2023/06/10 03:04:28;;;;;;;;;20.00;20.00;;;;;;;;5066049;28;8843;-80
2023/06/10 03:06:55;;;;;;;;;20.25;18.75;;;;;;;;5062073;28;8861;-79
2023/06/10 03:09:23;;;;;;;;;19.25;18.75;;;;;;;;5052827;28;8842;-77
2023/06/10 03:11:50;;;;;;;;;17.75;17.75;;;;;;;;5066142;28;8851;-80
2023/06/10 03:14:17;;;;;;;;;18.25;17.00;;;;;;;;5065048;28;8862;-78
2023/06/10 03:16:45;;;;;;;;;17.50;17.50;;;;;;;;5054512;28;9015;-79
2023/06/10 03:19:12;;;;;;;;;22.00;20.75;;;;;;;;5052033;28;9670;-78
2023/06/10 03:21:45;;;;;;;;;16.00;16.00;;;;;;;;5067318;28;8967;-80
2023/06/10 03:24:13;;;;;;;;;20.25;20.25;;;;;;;;5057081;28;8855;-79
2023/06/10 03:26:40;;;;;;;;;16.25;16.25;;;;;;;;5062995;28;8861;-80
2023/06/10 03:29:07;;;;;;;;;16.25;16.25;;;;;;;;5063363;28;8846;-78
2023/06/10 03:31:36;;;;;;;;;12.25;12.25;;;;;;;;5064448;28;8879;-76
2023/06/10 03:34:03;;;;;;;;;18.25;18.25;;;;;;;;5068007;28;8961;-77
2023/06/10 03:36:30;;;;;;;;;19.50;19.25;;;;;;;;5064926;28;8841;-77
2023/06/10 03:39:02;;;;;;;;;18.50;17.75;;;;;;;;5067115;28;8854;-77
2023/06/10 03:41:29;;;;;;;;;18.50;18.50;;;;;;;;5058969;28;8837;-77
2023/06/10 03:43:57;;;;;;;;;15.75;15.75;;;;;;;;5060099;28;8858;-77
2023/06/10 03:46:24;;;;;;;;;15.25;14.00;;;;;;;;5065004;28;8835;-77
2023/06/10 03:48:54;;;;;;;;;19.50;15.00;;;;;;;;5061475;28;8837;-78
2023/06/10 03:51:21;;;;;;;;;20.50;20.50;;;;;;;;5063199;28;8865;-78
2023/06/10 03:53:51;;;;;;;;;15.50;15.50;;;;;;;;5051874;28;8853;-77
2023/06/10 03:56:19;;;;;;;;;21.00;21.00;;;;;;;;5052971;28;8993;-77
2023/06/10 03:58:47;;;;;;;;;19.25;17.75;;;;;;;;5067152;28;8924;-77
2023/06/10 04:01:14;;;;;;;;;15.33;15.33;;;;;;;;5063069;28;9637;-77
2023/06/10 04:03:41;;;;;;;;;19.00;19.00;;;;;;;;5064693;28;9890;-81
2023/06/10 04:06:09;;;;;;;;;20.00;20.00;;;;;;;;5054062;28;8837;-79
2023/06/10 04:08:36;;;;;;;;;23.00;19.50;;;;;;;;5066806;28;8862;-77
2023/06/10 04:11:04;;;;;;;;;19.75;19.00;;;;;;;;5057539;28;8932;-78
2023/06/10 04:13:32;;;;;;;;;19.25;19.25;;;;;;;;5055730;28;8857;-77
2023/06/10 04:16:00;;;;;;;;;16.75;16.75;;;;;;;;5059008;28;8885;-78
2023/06/10 04:18:27;;;;;;;;;23.50;21.00;;;;;;;;5060523;28;8911;-78
2023/06/10 04:20:55;;;;;;;;;20.00;19.75;;;;;;;;5061237;28;8859;-78
2023/06/10 04:23:22;;;;;;;;;19.25;19.00;;;;;;;;5060884;28;8867;-78
2023/06/10 04:25:50;;;;;;;;;19.25;19.25;;;;;;;;5057591;28;8936;-79
2023/06/10 04:28:17;;;;;;;;;18.75;18.75;;;;;;;;5056903;28;8918;-78
2023/06/10 04:30:45;;;;;;;;;22.75;21.00;;;;;;;;5064659;28;8856;-78
2023/06/10 04:33:13;;;;;;;;;20.75;19.75;;;;;;;;5049740;28;8975;-78
2023/06/10 04:35:40;;;;;;;;;17.75;17.75;;;;;;;;5050581;28;8973;-78
2023/06/10 04:38:07;;;;;;;;;18.00;18.00;;;;;;;;5047177;28;8838;-79
2023/06/10 04:40:35;;;;;;;;;20.25;18.25;;;;;;;;5050467;28;8867;-78
2023/06/10 04:43:02;;;;;;;;;19.50;18.00;;;;;;;;5045864;28;8974;-78
2023/06/10 04:45:29;;;;;;;;;20.00;20.00;;;;;;;;5044690;28;8858;-78
2023/06/10 04:47:58;;;;;;;;;17.25;17.25;;;;;;;;5048383;28;8890;-78
2023/06/10 04:50:26;;;;;;;;;22.00;19.50;;;;;;;;5045817;28;8843;-78
2023/06/10 04:52:57;;;;;;;;;17.00;17.00;;;;;;;;5044890;28;8851;-79
2023/06/10 04:55:25;;;;;;;;;17.75;16.75;;;;;;;;5044541;28;8849;-79
2023/06/10 04:57:57;;;;;;;;;24.75;19.25;;;;;;;;5047139;28;8839;-79
2023/06/10 05:00:24;;;;;;;;;21.75;19.75;;;;;;;;5040878;28;8838;-79
2023/06/10 05:02:51;;;;;;;;;18.75;18.75;;;;;;;;5048657;28;8878;-79
2023/06/10 05:05:20;;;;;;;;;20.00;19.50;;;;;;;;5047253;28;8855;-79
2023/06/10 05:07:50;;;;;;;;;19.50;19.50;;;;;;;;5048140;28;8910;-79
2023/06/10 05:10:18;;;;;;;;;23.50;22.50;;;;;;;;5047662;28;9005;-78
2023/06/10 05:12:45;;;;;;;;;21.50;19.50;;;;;;;;5044642;28;8846;-78
2023/06/10 05:15:12;;;;;;;;;18.25;18.25;;;;;;;;5043310;28;8847;-79
2023/06/10 05:17:40;;;;;;;;;16.00;15.75;;;;;;;;5037534;28;8924;-77
2023/06/10 05:20:08;;;;;;;;;22.00;20.25;;;;;;;;5047791;28;8839;-77
2023/06/10 05:22:36;;;;;;;;;17.50;15.50;;;;;;;;5048440;28;8871;-79
2023/06/10 05:25:06;;;;;;;;;19.75;18.75;;;;;;;;5049057;28;8897;-79
2023/06/10 05:27:33;;;;;;;;;18.00;18.00;;;;;;;;5049096;28;8874;-78
2023/06/10 05:30:00;;;;;;;;;15.75;15.75;;;;;;;;5036277;28;8988;-78
2023/06/10 05:32:28;;;;;;;;;22.00;18.50;;;;;;;;5041792;28;8798;-82
2023/06/10 05:34:55;;;;;;;;;14.50;14.50;;;;;;;;5042805;28;9702;-80
2023/06/10 05:37:22;;;;;;;;;16.25;16.25;;;;;;;;5034352;28;8912;-80
2023/06/10 05:39:51;;;;;;;;;18.00;17.25;;;;;;;;5044974;28;8843;-81
2023/06/10 05:42:18;;;;;;;;;16.75;16.75;;;;;;;;5050586;28;8881;-85
2023/06/10 05:44:46;;;;;;;;;18.75;16.00;;;;;;;;5037347;28;8858;-82
2023/06/10 05:47:13;;;;;;;;;19.25;17.50;;;;;;;;5039443;28;8847;-86
2023/06/10 05:49:41;;;;;;;;;18.75;17.50;;;;;;;;5044735;28;8868;-83
2023/06/10 05:52:08;;;;;;;;;15.75;15.50;;;;;;;;5039568;28;8917;-85
2023/06/10 05:54:35;;;;;;;;;15.75;15.75;;;;;;;;5050217;28;8851;-85
2023/06/10 05:57:07;;;;;;;;;16.75;16.75;;;;;;;;5035242;28;8908;-84
2023/06/10 05:59:37;;;;;;;;;17.50;17.25;;;;;;;;5056094;28;8867;-90
2023/06/10 06:02:05;;;;;;;;;17.00;16.00;;;;;;;;5047553;28;8807;-91
2023/06/10 06:04:33;;;;;;;;;13.00;13.00;;;;;;;;5041777;28;8882;-87
2023/06/10 06:07:00;;;;;;;;;18.75;16.50;;;;;;;;5039233;28;8889;-85
2023/06/10 06:09:27;;;;;;;;;16.50;16.50;;;;;;;;5039069;28;8924;-81
2023/06/10 06:11:55;;;;;;;;;14.75;14.75;;;;;;;;5031199;28;8838;-81
2023/06/10 06:14:23;;;;;;;;;16.50;16.50;;;;;;;;5033415;28;8905;-81
2023/06/10 06:16:51;;;;;;;;;17.75;16.00;;;;;;;;5049588;28;8869;-80
2023/06/10 06:19:21;;;;;;;;;14.25;14.25;;;;;;;;5042166;28;8851;-90
2023/06/10 06:21:51;;;;;;;;;12.50;12.50;;;;;;;;5033494;28;8880;-84
2023/06/10 06:24:19;;;;;;;;;12.25;12.25;;;;;;;;5041231;28;8869;-82
2023/06/10 06:26:49;;;;;;;;;21.00;18.00;;;;;;;;5045796;28;8842;-81
2023/06/10 06:29:19;;;;;;;;;16.75;16.75;;;;;;;;5039787;28;8932;-81
2023/06/10 06:31:54;;;;;;;;;16.25;16.25;;;;;;;;5046216;28;8807;-84
2023/06/10 06:34:21;;;;;;;;;15.75;15.50;;;;;;;;5047349;28;8867;-82
2023/06/10 06:36:52;;;;;;;;;16.00;15.50;;;;;;;;5040143;28;9021;-80
2023/06/10 06:39:23;;;;;;;;;15.25;15.25;;;;;;;;5043975;28;9101;-82
2023/06/10 06:41:50;;;;;;;;;15.40;15.00;;;;;;;;5049010;28;8851;-81
2023/06/10 06:44:18;;;;;;;;;17.00;15.60;;;;;;;;5049788;28;8917;-82
2023/06/10 06:46:45;;;;;;;;;18.00;16.60;;;;;;;;5038758;28;8935;-81
2023/06/10 06:49:14;;;;;;;;;14.80;14.80;;;;;;;;5045793;28;8870;-82
2023/06/10 06:51:42;;;;;;;;;12.40;12.40;;;;;;;;5049169;28;8847;-83
2023/06/10 06:54:11;;;;;;;;;11.00;11.00;;;;;;;;5048828;28;8851;-84
2023/06/10 06:56:40;;;;;;;;;16.00;15.60;;;;;;;;5042984;28;8882;-83
2023/06/10 06:59:08;;;;;;;;;13.40;13.40;;;;;;;;5046931;28;8878;-81
2023/06/10 07:01:35;;;;;;;;;10.00;10.00;;;;;;;;5032576;28;8802;-83
2023/06/10 07:04:03;;;;;;;;;16.00;15.00;;;;;;;;5045518;28;9018;-82
2023/06/10 07:06:31;;;;;;;;;15.00;14.20;;;;;;;;5038313;28;8893;-82
2023/06/10 07:09:01;;;;;;;;;14.20;14.20;;;;;;;;5047778;28;8863;-81
2023/06/10 07:11:29;;;;;;;;;13.80;13.80;;;;;;;;5048902;28;8968;-81
2023/06/10 07:13:58;;;;;;;;;12.80;12.80;;;;;;;;5048739;28;8855;-80
2023/06/10 07:16:25;;;;;;;;;15.00;15.00;;;;;;;;5050039;28;8932;-81
2023/06/10 07:18:54;;;;;;;;;11.40;11.40;;;;;;;;5042823;28;8957;-80
2023/06/10 07:21:23;;;;;;;;;13.60;13.60;;;;;;;;5050811;28;8866;-82
2023/06/10 07:23:53;;;;;;;;;11.20;11.20;;;;;;;;5047358;28;8940;-82
2023/06/10 07:26:20;;;;;;;;;11.40;11.40;;;;;;;;5050899;28;8859;-83
2023/06/10 07:28:50;;;;;;;;;13.20;11.80;;;;;;;;5050538;28;8855;-83
2023/06/10 07:31:18;;;;;;;;;11.80;11.80;;;;;;;;5048707;28;8890;-83
2023/06/10 07:33:45;;;;;;;;;12.80;11.80;;;;;;;;5047914;28;8875;-82
2023/06/10 07:36:12;;;;;;;;;9.00;9.00;;;;;;;;5032000;28;8949;-82
2023/06/10 07:38:42;;;;;;;;;13.80;12.00;;;;;;;;5036907;28;8940;-82
2023/06/10 07:41:19;;;;;;;;;10.40;10.40;;;;;;;;5048115;28;8851;-84
2023/06/10 07:43:46;;;;;;;;;8.40;8.40;;;;;;;;5043373;28;8847;-82
2023/06/10 07:46:15;;;;;;;;;10.00;9.80;;;;;;;;5047567;28;8855;-81
2023/06/10 07:48:44;;;;;;;;;9.80;9.00;;;;;;;;5047491;28;8843;-83
2023/06/10 07:51:14;;;;;;;;;10.20;10.20;;;;;;;;5047472;28;8920;-83
2023/06/10 07:53:41;;;;;;;;;9.60;9.20;;;;;;;;5048620;28;8851;-81
2023/06/10 07:56:11;;;;;;;;;8.00;8.00;;;;;;;;5048280;28;8868;-82
2023/06/10 07:58:40;;;;;;;;;8.20;8.20;;;;;;;;5047676;28;8873;-82
2023/06/10 08:01:10;;;;;;;;;10.20;10.20;;;;;;;;5039803;28;8810;-83
2023/06/10 08:03:37;;;;;;;;;8.40;8.40;;;;;;;;5036289;28;8919;-82
2023/06/10 08:06:05;;;;;;;;;9.40;7.80;;;;;;;;5045175;28;9653;-82
2023/06/10 08:08:40;;;;;;;;;7.80;6.00;;;;;;;;5041817;28;8952;-84
2023/06/10 08:11:07;;;;;;;;;7.20;7.20;;;;;;;;5051340;28;8851;-83
2023/06/10 08:13:36;;;;;;;;;6.00;6.00;;;;;;;;5053488;28;8874;-83
2023/06/10 08:16:03;;;;;;;;;7.00;5.40;;;;;;;;5054269;28;8858;-83
2023/06/10 08:18:30;;;;;;;;;6.60;6.60;;;;;;;;5051052;28;8867;-85
2023/06/10 08:20:58;;;;;;;;;4.60;2.60;;;;;;;;5051786;28;8831;-83
2023/06/10 08:23:25;;;;;;;;;7.00;5.00;;;;;;;;5051384;28;8855;-84
2023/06/10 08:25:54;;;;;;;;;7.00;7.00;;;;;;;;5049038;28;8874;-82
2023/06/10 08:28:21;;;;;;;;;6.80;5.00;;;;;;;;5050345;28;8855;-91
2023/06/10 08:30:54;;;;;;;;;5.80;5.80;;;;;;;;5052641;28;8860;-82
2023/06/10 08:33:22;;;;;;;;;5.80;5.80;;;;;;;;5049642;28;8871;-82
2023/06/10 08:35:54;;;;;;;;;6.20;6.20;;;;;;;;5039305;28;8871;-82
2023/06/10 08:38:22;;;;;;;;;6.60;6.60;;;;;;;;5050419;28;8967;-83
2023/06/10 08:40:50;;;;;;;;;7.00;7.00;;;;;;;;5049026;28;8847;-83
2023/06/10 08:43:21;;;;;;;;;5.40;5.40;;;;;;;;5048075;28;8834;-83
2023/06/10 08:46:02;;;;;;;;;6.00;6.00;;;;;;;;5050725;28;8881;-83
2023/06/10 08:48:31;;;;;;;;;5.20;5.20;;;;;;;;5050155;28;9400;-82
2023/06/10 08:50:59;;;;;;;;;5.60;4.60;;;;;;;;5050682;28;8948;-82
2023/06/10 08:53:28;;;;;;;;;5.60;4.60;;;;;;;;5050533;28;9618;-82
2023/06/10 08:55:59;;;;;;;;;2.20;2.20;;;;;;;;5050330;28;8871;-82
2023/06/10 08:58:33;;;;;;;;;6.00;6.00;;;;;;;;5049311;28;8894;-83
2023/06/10 09:01:01;;;;;;;;;4.20;4.20;;;;;;;;5050280;28;8900;-83
2023/06/10 09:03:34;;;;;;;;;3.20;3.20;;;;;;;;5052369;28;8890;-82
2023/06/10 09:06:05;;;;;;;;;5.80;5.00;;;;;;;;5042589;28;8839;-83
2023/06/10 09:08:32;;;;;;;;;3.00;3.00;;;;;;;;5039592;28;8873;-83
2023/06/10 09:11:02;;;;;;;;;3.80;3.80;;;;;;;;5043883;28;8885;-82
2023/06/10 09:13:30;;;;;;;;;6.00;6.00;;;;;;;;5039433;28;9369;-83
2023/06/10 09:16:00;;;;;;;;;6.80;6.80;;;;;;;;5037238;28;9191;-83
2023/06/10 09:18:29;;;;;;;;;6.00;6.00;;;;;;;;5040218;28;8964;-82
2023/06/10 09:20:59;;;;;;;;;6.00;6.00;;;;;;;;5046969;28;8839;-83
2023/06/10 09:23:28;;;;;;;;;4.00;4.00;;;;;;;;5039228;28;8868;-82
2023/06/10 09:26:00;;;;;;;;;5.00;5.00;;;;;;;;5048034;28;8843;-83
2023/06/10 09:28:27;;;;;;;;;4.80;3.20;;;;;;;;5037593;28;8976;-83
2023/06/10 09:31:04;;;;;;;;;5.80;5.00;;;;;;;;5034820;28;8795;-82
2023/06/10 09:33:33;;;;;;;;;3.00;3.00;;;;;;;;5036926;28;8884;-82
2023/06/10 09:36:03;;;;;;;;;3.00;3.00;;;;;;;;5030505;28;8866;-83
2023/06/10 09:38:34;;;;;;;;;4.40;3.00;;;;;;;;5044519;28;8894;-83
2023/06/10 09:41:01;;;;;;;;;3.80;3.80;;;;;;;;5050061;28;8851;-83
2023/06/10 09:43:43;;;;;;;;;5.00;5.00;;;;;;;;5047430;28;8859;-83
2023/06/10 09:46:17;;;;;;;;;3.00;3.00;;;;;;;;5030953;28;8861;-83
2023/06/10 09:48:47;;;;;;;;;3.00;3.00;;;;;;;;5035910;28;8989;-83
2023/06/10 09:51:16;;;;;;;;;2.40;2.40;;;;;;;;5049851;28;8847;-82
2023/06/10 09:53:52;;;;;;;;;6.40;2.00;;;;;;;;5036601;28;8863;-82
2023/06/10 09:56:20;;;;;;;;;4.60;2.80;;;;;;;;5035174;28;8861;-82
2023/06/10 09:58:50;;;;;;;;;3.00;3.00;;;;;;;;5038295;28;8855;-82
2023/06/10 10:01:18;;;;;;;;;8.40;8.40;;;;;;;;5048326;28;8820;-83
2023/06/10 10:03:51;;;;;;;;;12.80;12.80;;;;;;;;5040442;28;8862;-83
2023/06/10 10:06:20;;;;;;;;;3.40;3.40;;;;;;;;5041767;28;8903;-82
2023/06/10 10:08:49;;;;;;;;;2.80;2.80;;;;;;;;5034482;28;8955;-82
2023/06/10 10:11:20;;;;;;;;;4.60;4.00;;;;;;;;5035110;28;8885;-83
2023/06/10 10:13:49;;;;;;;;;3.20;3.20;;;;;;;;5031477;28;8842;-83
2023/06/10 10:16:19;;;;;;;;;2.80;2.80;;;;;;;;5047690;28;8863;-82
2023/06/10 10:18:55;;;;;;;;;4.80;4.80;;;;;;;;5048443;28;8835;-82
2023/06/10 10:21:25;;;;;;;;;4.00;3.00;;;;;;;;5048869;28;8973;-82
2023/06/10 10:24:00;;;;;;;;;5.80;5.80;;;;;;;;5048294;28;8879;-82
2023/06/10 10:26:31;;;;;;;;;4.80;4.80;;;;;;;;5039375;28;8847;-82
2023/06/10 10:29:09;;;;;;;;;2.80;2.80;;;;;;;;5051056;28;8882;-82
2023/06/10 10:31:37;;;;;;;;;2.40;2.40;;;;;;;;5051294;28;8828;-82
2023/06/10 10:34:08;;;;;;;;;4.20;4.20;;;;;;;;5048058;28;8878;-82
2023/06/10 10:36:38;;;;;;;;;4.00;4.00;;;;;;;;5051370;28;8866;-82
2023/06/10 10:39:07;;;;;;;;;4.00;4.00;;;;;;;;5049701;28;8897;-82
2023/06/10 10:41:35;;;;;;;;;4.60;4.60;;;;;;;;5043962;28;8860;-83
2023/06/10 10:44:05;;;;;;;;;5.00;5.00;;;;;;;;5047728;28;8870;-83
2023/06/10 10:46:32;;;;;;;;;4.60;3.60;;;;;;;;5039315;28;8912;-83
2023/06/10 10:49:00;;;;;;;;;5.00;4.40;;;;;;;;5047668;28;8952;-84
2023/06/10 10:51:36;;;;;;;;;3.00;3.00;;;;;;;;5047096;28;8924;-83
2023/06/10 10:54:14;;;;;;;;;6.20;4.20;;;;;;;;5047453;28;8870;-83
2023/06/10 10:57:11;;;;;;;;;4.20;3.00;;;;;;;;5048048;28;8843;-82
2023/06/10 11:00:01;;;;;;;;;5.40;4.00;;;;;;;;5047927;28;9707;-83
2023/06/10 11:02:44;;;;;;;;;5.00;5.00;;;;;;;;5044354;28;8842;-83
2023/06/10 11:05:15;;;;;;;;;4.80;4.80;;;;;;;;5037423;28;8855;-83
2023/06/10 11:07:55;;;;;;;;;3.80;3.80;;;;;;;;5036026;28;8842;-82
2023/06/10 11:10:31;;;;;;;;;4.00;4.00;;;;;;;;5046985;28;8959;-83
2023/06/10 11:12:58;;;;;;;;;2.00;2.00;;;;;;;;5046272;28;8851;-83
2023/06/10 11:15:26;;;;;;;;;7.40;6.20;;;;;;;;5047606;28;8855;-82
2023/06/10 11:18:22;;;;;;;;;4.00;4.00;;;;;;;;5047985;28;8879;-83
2023/06/10 11:21:00;;;;;;;;;3.20;3.20;;;;;;;;5047413;28;8921;-83
2023/06/10 11:23:40;;;;;;;;;5.20;5.20;;;;;;;;5046801;28;8981;-83
2023/06/10 11:26:19;;;;;;;;;4.00;4.00;;;;;;;;5036551;28;8879;-83
2023/06/10 11:29:10;;;;;;;;;3.20;3.20;;;;;;;;5045784;28;8988;-83
2023/06/10 11:31:50;;;;;;;;;4.40;4.40;;;;;;;;5046996;28;8832;-82
2023/06/10 11:34:24;;;;;;;;;5.00;5.00;;;;;;;;5048296;28;8862;-82
2023/06/10 11:36:54;;;;;;;;;5.20;5.20;;;;;;;;5050170;28;8866;-82
2023/06/10 11:39:26;;;;;;;;;6.00;6.00;;;;;;;;5048977;28;8968;-82
2023/06/10 11:41:56;;;;;;;;;6.00;6.00;;;;;;;;5049040;28;8970;-83
2023/06/10 11:44:23;;;;;;;;;7.00;5.00;;;;;;;;5051843;28;8839;-82
2023/06/10 11:46:51;;;;;;;;;5.20;5.20;;;;;;;;5051791;28;8867;-82
2023/06/10 11:49:18;;;;;;;;;5.80;5.80;;;;;;;;5049695;28;9642;-82
2023/06/10 11:51:51;;;;;;;;;4.80;4.80;;;;;;;;5050430;28;8903;-82
2023/06/10 11:54:19;;;;;;;;;6.60;6.60;;;;;;;;5051280;28;9303;-81
2023/06/10 11:56:50;;;;;;;;;5.20;5.20;;;;;;;;5048304;28;8855;-81
2023/06/10 11:59:18;;;;;;;;;6.40;5.20;;;;;;;;5047519;28;8897;-81
2023/06/10 12:01:46;;;;;;;;;7.20;5.40;;;;;;;;5050845;28;8922;-81
2023/06/10 12:04:17;;;;;;;;;4.60;3.80;;;;;;;;5051586;28;8834;-81
2023/06/10 12:06:47;;;;;;;;;6.00;6.00;;;;;;;;5044841;28;8861;-81
2023/06/10 12:09:19;;;;;;;;;6.60;6.60;;;;;;;;5040927;28;8853;-81
2023/06/10 12:11:50;;;;;;;;;6.00;6.00;;;;;;;;5053841;28;8857;-81
2023/06/10 12:14:32;;;;;;;;;5.40;5.40;;;;;;;;5053752;28;8926;-80
2023/06/10 12:17:00;;;;;;;;;5.00;5.00;;;;;;;;5045513;28;8862;-81
2023/06/10 12:19:30;;;;;;;;;5.40;5.40;;;;;;;;5051574;28;8874;-81
2023/06/10 12:21:59;;;;;;;;;5.20;5.20;;;;;;;;5049169;28;8873;-81
2023/06/10 12:24:27;;;;;;;;;5.60;5.60;;;;;;;;5038631;28;8863;-81
2023/06/10 12:26:56;;;;;;;;;5.00;5.00;;;;;;;;5046876;28;8847;-81
2023/06/10 12:29:25;;;;;;;;;5.00;5.00;;;;;;;;5050959;28;8873;-81
2023/06/10 12:32:00;;;;;;;;;4.00;4.00;;;;;;;;5050186;28;8791;-82
2023/06/10 12:34:35;;;;;;;;;9.00;7.20;;;;;;;;5045358;28;8936;-81
2023/06/10 12:37:04;;;;;;;;;7.40;7.40;;;;;;;;5048626;28;8863;-81
2023/06/10 12:39:31;;;;;;;;;5.40;5.40;;;;;;;;5050550;28;8878;-81
2023/06/10 12:42:00;;;;;;;;;5.40;5.40;;;;;;;;5050723;28;8883;-82
2023/06/10 12:44:32;;;;;;;;;6.40;6.40;;;;;;;;5050343;28;8848;-82
2023/06/10 12:46:59;;;;;;;;;7.20;7.00;;;;;;;;5049290;28;9800;-81
2023/06/10 12:49:29;;;;;;;;;6.60;6.60;;;;;;;;5049927;28;8859;-82
2023/06/10 12:51:56;;;;;;;;;6.60;6.60;;;;;;;;5050557;28;8851;-82
2023/06/10 12:54:25;;;;;;;;;6.80;6.80;;;;;;;;5043974;28;8939;-82
2023/06/10 12:56:53;;;;;;;;;6.40;6.40;;;;;;;;5050176;28;8879;-81
2023/06/10 12:59:21;;;;;;;;;6.00;6.00;;;;;;;;5050390;28;8969;-81
2023/06/10 13:01:54;;;;;;;;;5.40;5.40;;;;;;;;5042605;28;8954;-83
2023/06/10 13:04:22;;;;;;;;;8.60;7.00;;;;;;;;5049876;28;8986;-81
2023/06/10 13:06:50;;;;;;;;;7.40;7.40;;;;;;;;5042542;28;8946;-82
2023/06/10 13:09:17;;;;;;;;;8.00;6.00;;;;;;;;5047227;28;8845;-81
2023/06/10 13:11:45;;;;;;;;;7.60;6.60;;;;;;;;5052459;28;8847;-81
2023/06/10 13:14:18;;;;;;;;;8.20;6.60;;;;;;;;5050668;28;8920;-82
2023/06/10 13:16:46;;;;;;;;;6.80;6.80;;;;;;;;5050837;28;8859;-80
2023/06/10 13:19:14;;;;;;;;;7.00;7.00;;;;;;;;5049921;28;8850;-81
2023/06/10 13:21:41;;;;;;;;;7.40;7.40;;;;;;;;5050592;28;8871;-81
2023/06/10 13:24:09;;;;;;;;;6.40;6.40;;;;;;;;5049455;28;9629;-81
2023/06/10 13:26:36;;;;;;;;;6.40;6.40;;;;;;;;5049605;28;8990;-81
2023/06/10 13:29:04;;;;;;;;;6.80;6.80;;;;;;;;5046609;28;8858;-81
2023/06/10 13:31:32;;;;;;;;;8.40;8.40;;;;;;;;5049386;28;9602;-81
2023/06/10 13:34:00;;;;;;;;;7.00;7.00;;;;;;;;5048571;28;8885;-82
2023/06/10 13:36:29;;;;;;;;;8.40;8.00;;;;;;;;5049778;28;8906;-81
2023/06/10 13:38:57;;;;;;;;;7.20;7.20;;;;;;;;5049671;28;8859;-81
2023/06/10 13:41:28;;;;;;;;;7.00;7.00;;;;;;;;5049046;28;8847;-81
2023/06/10 13:43:58;;;;;;;;;7.20;7.20;;;;;;;;5050220;28;8900;-81
2023/06/10 13:46:26;;;;;;;;;8.00;8.00;;;;;;;;5050520;28;8855;-80
2023/06/10 13:48:53;;;;;;;;;6.00;6.00;;;;;;;;5051165;28;8908;-81
2023/06/10 13:51:22;;;;;;;;;6.00;6.00;;;;;;;;5049351;28;8858;-81
2023/06/10 13:53:51;;;;;;;;;6.20;6.20;;;;;;;;5044761;28;8896;-81
2023/06/10 13:56:19;;;;;;;;;8.80;8.80;;;;;;;;5044499;28;8891;-81
2023/06/10 13:58:46;;;;;;;;;9.40;8.20;;;;;;;;5038776;28;8839;-81
2023/06/10 14:01:14;;;;;;;;;6.60;6.60;;;;;;;;5040020;28;8830;-82
2023/06/10 14:03:41;;;;;;;;;7.60;7.60;;;;;;;;5048702;28;8811;-81
2023/06/10 14:06:08;;;;;;;;;6.40;6.40;;;;;;;;5045732;28;9395;-81
2023/06/10 14:08:37;;;;;;;;;9.20;7.20;;;;;;;;5037502;28;8881;-81
2023/06/10 14:11:04;;;;;;;;;6.00;6.00;;;;;;;;5045581;28;8887;-81
2023/06/10 14:13:33;;;;;;;;;7.80;7.60;;;;;;;;5048723;28;8851;-81
2023/06/10 14:16:02;;;;;;;;;7.80;7.80;;;;;;;;5042599;28;8865;-82
2023/06/10 14:18:29;;;;;;;;;11.60;8.40;;;;;;;;5042253;28;8913;-81
2023/06/10 14:20:57;;;;;;;;;8.40;8.40;;;;;;;;5048757;28;8851;-82
2023/06/10 14:23:25;;;;;;;;;7.40;7.40;;;;;;;;5037007;28;8838;-81
2023/06/10 14:25:58;;;;;;;;;9.00;9.00;;;;;;;;5047504;28;8882;-81
2023/06/10 14:28:27;;;;;;;;;8.80;8.00;;;;;;;;5048365;28;8863;-81
2023/06/10 14:30:57;;;;;;;;;8.60;8.60;;;;;;;;5048462;28;8823;-82
2023/06/10 14:33:25;;;;;;;;;9.80;9.80;;;;;;;;5042499;28;8858;-82
2023/06/10 14:35:52;;;;;;;;;6.20;6.20;;;;;;;;5047303;28;8851;-81
2023/06/10 14:38:19;;;;;;;;;9.40;8.00;;;;;;;;5041986;28;8902;-81
2023/06/10 14:40:46;;;;;;;;;11.60;7.80;;;;;;;;5040809;28;8863;-81
2023/06/10 14:43:15;;;;;;;;;7.80;7.80;;;;;;;;5042783;28;9642;-82
2023/06/10 14:45:45;;;;;;;;;9.20;8.00;;;;;;;;5041749;28;8954;-82
2023/06/10 14:48:14;;;;;;;;;10.60;10.00;;;;;;;;5048844;28;8865;-81
2023/06/10 14:50:44;;;;;;;;;9.20;9.20;;;;;;;;5048588;28;8974;-82
2023/06/10 14:53:12;;;;;;;;;9.00;9.00;;;;;;;;5049430;28;8890;-81
2023/06/10 14:55:39;;;;;;;;;10.60;9.00;;;;;;;;5048681;28;8882;-81